sensor_id;sensor_type;location;lat;lon;timestamp;pressure;altitude;pressure_sealevel;temperature;humidity
40574;BME280;26283;49.020;8.644;2024-02-23T00:01:25;97263.03;;;12.73;63.90
40574;BME280;26283;49.020;8.644;2024-02-23T00:03:51;97263.03;;;12.73;63.90
40574;BME280;26283;49.020;8.644;2024-02-23T00:06:17;97283.03;;;12.72;63.92
40574;BME280;26283;49.020;8.644;2024-02-23T00:08:42;97299.25;;;12.72;63.93
40574;BME280;26283;49.020;8.644;2024-02-23T00:11:08;97281.44;;;12.71;63.94
40574;BME280;26283;49.020;8.644;2024-02-23T00:13:33;97284.94;;;12.72;63.94
40574;BME280;26283;49.020;8.644;2024-02-23T00:15:58;97276.28;;;12.69;63.95
40574;BME280;26283;49.020;8.644;2024-02-23T00:18:24;97281.69;;;12.69;63.96
40574;BME280;26283;49.020;8.644;2024-02-23T00:20:49;97283.59;;;12.69;63.96
40574;BME280;26283;49.020;8.644;2024-02-23T00:23:15;97285.50;;;12.68;63.96
40574;BME280;26283;49.020;8.644;2024-02-23T00:25:41;97281.97;;;12.68;63.97
40574;BME280;26283;49.020;8.644;2024-02-23T00:28:06;97314.41;;;12.68;63.99
40574;BME280;26283;49.020;8.644;2024-02-23T00:30:32;97318.19;;;12.67;64.00
40574;BME280;26283;49.020;8.644;2024-02-23T00:32:58;97315.50;;;12.67;64.00
40574;BME280;26283;49.020;8.644;2024-02-23T00:35:23;97315.50;;;12.67;64.02
40574;BME280;26283;49.020;8.644;2024-02-23T00:37:49;97321.97;;;12.66;64.03
40574;BME280;26283;49.020;8.644;2024-02-23T00:40:14;97331.97;;;12.65;64.03
40574;BME280;26283;49.020;8.644;2024-02-23T00:42:39;97323.06;;;12.65;64.04
40574;BME280;26283;49.020;8.644;2024-02-23T00:45:05;97345.78;;;12.64;64.04
40574;BME280;26283;49.020;8.644;2024-02-23T00:47:31;97340.37;;;12.64;64.05
40574;BME280;26283;49.020;8.644;2024-02-23T00:49:56;97333.34;;;12.63;64.06
40574;BME280;26283;49.020;8.644;2024-02-23T00:52:21;97329.84;;;12.62;64.08
40574;BME280;26283;49.020;8.644;2024-02-23T00:54:47;97331.72;;;12.62;64.08
40574;BME280;26283;49.020;8.644;2024-02-23T00:57:12;97334.44;;;12.62;64.09
40574;BME280;26283;49.020;8.644;2024-02-23T00:59:38;97350.63;;;12.62;64.10
40574;BME280;26283;49.020;8.644;2024-02-23T01:02:03;97354.44;;;12.61;64.11
40574;BME280;26283;49.020;8.644;2024-02-23T01:04:30;97345.50;;;12.60;64.12
40574;BME280;26283;49.020;8.644;2024-02-23T01:06:55;97358.22;;;12.60;64.12
40574;BME280;26283;49.020;8.644;2024-02-23T01:09:20;97356.59;;;12.59;64.12
40574;BME280;26283;49.020;8.644;2024-02-23T01:11:48;97348.50;;;12.59;64.12
40574;BME280;26283;49.020;8.644;2024-02-23T01:14:14;97356.59;;;12.59;64.14
40574;BME280;26283;49.020;8.644;2024-02-23T01:16:39;97362.00;;;12.59;64.14
40574;BME280;26283;49.020;8.644;2024-02-23T01:19:05;97352.56;;;12.56;64.16
40574;BME280;26283;49.020;8.644;2024-02-23T01:21:30;97352.56;;;12.56;64.17
40574;BME280;26283;49.020;8.644;2024-02-23T01:23:55;97352.56;;;12.56;64.18
40574;BME280;26283;49.020;8.644;2024-02-23T01:26:22;97327.97;;;12.58;64.38
40574;BME280;26283;49.020;8.644;2024-02-23T01:28:48;97333.63;;;12.61;63.49
40574;BME280;26283;49.020;8.644;2024-02-23T01:31:13;97356.84;;;12.62;62.75
40574;BME280;26283;49.020;8.644;2024-02-23T01:33:39;97340.63;;;12.62;62.34
40574;BME280;26283;49.020;8.644;2024-02-23T01:36:05;97352.81;;;12.60;62.00
40574;BME280;26283;49.020;8.644;2024-02-23T01:38:31;97361.19;;;12.58;61.92
40574;BME280;26283;49.020;8.644;2024-02-23T01:40:58;97358.75;;;12.57;61.80
40574;BME280;26283;49.020;8.644;2024-02-23T01:43:24;97365.56;;;12.54;61.75
40574;BME280;26283;49.020;8.644;2024-02-23T01:45:49;97363.94;;;12.53;61.85
40574;BME280;26283;49.020;8.644;2024-02-23T01:48:15;97369.63;;;12.52;61.58
40574;BME280;26283;49.020;8.644;2024-02-23T01:50:42;97385.28;;;12.50;61.55
40574;BME280;26283;49.020;8.644;2024-02-23T01:53:08;97396.09;;;12.50;61.44
40574;BME280;26283;49.020;8.644;2024-02-23T01:55:36;97392.06;;;12.47;61.51
40574;BME280;26283;49.020;8.644;2024-02-23T01:58:03;97393.94;;;12.47;61.53
40574;BME280;26283;49.020;8.644;2024-02-23T02:00:29;97393.13;;;12.46;61.47
40574;BME280;26283;49.020;8.644;2024-02-23T02:02:55;97386.37;;;12.44;61.28
40574;BME280;26283;49.020;8.644;2024-02-23T02:05:20;97384.50;;;12.44;61.20
40574;BME280;26283;49.020;8.644;2024-02-23T02:07:47;97383.16;;;12.42;61.39
40574;BME280;26283;49.020;8.644;2024-02-23T02:10:15;97381.53;;;12.41;61.29
40574;BME280;26283;49.020;8.644;2024-02-23T02:12:42;97388.81;;;12.40;61.29
40574;BME280;26283;49.020;8.644;2024-02-23T02:15:08;97379.09;;;12.39;61.15
40574;BME280;26283;49.020;8.644;2024-02-23T02:17:33;97391.00;;;12.38;61.17
40574;BME280;26283;49.020;8.644;2024-02-23T02:20:02;97396.66;;;12.36;61.12
40574;BME280;26283;49.020;8.644;2024-02-23T02:22:32;97399.38;;;12.36;61.16
40574;BME280;26283;49.020;8.644;2024-02-23T02:24:57;97405.84;;;12.35;60.95
40574;BME280;26283;49.020;8.644;2024-02-23T02:27:23;97404.22;;;12.34;60.75
40574;BME280;26283;49.020;8.644;2024-02-23T02:29:50;97396.13;;;12.34;60.76
40574;BME280;26283;49.020;8.644;2024-02-23T02:32:16;97396.44;;;12.33;60.81
40574;BME280;26283;49.020;8.644;2024-02-23T02:34:42;97415.34;;;12.33;60.57
40574;BME280;26283;49.020;8.644;2024-02-23T02:37:07;97407.50;;;12.31;60.69
40574;BME280;26283;49.020;8.644;2024-02-23T02:39:33;97414.81;;;12.31;60.71
40574;BME280;26283;49.020;8.644;2024-02-23T02:41:59;97414.00;;;12.30;60.75
40574;BME280;26283;49.020;8.644;2024-02-23T02:44:24;97423.19;;;12.29;60.81
40574;BME280;26283;49.020;8.644;2024-02-23T02:46:51;97400.75;;;12.29;60.65
40574;BME280;26283;49.020;8.644;2024-02-23T02:49:17;97405.34;;;12.28;60.62
40574;BME280;26283;49.020;8.644;2024-02-23T02:51:42;97408.31;;;12.27;60.62
40574;BME280;26283;49.020;8.644;2024-02-23T02:54:08;97416.44;;;12.27;60.66
40574;BME280;26283;49.020;8.644;2024-02-23T02:56:33;97422.09;;;12.25;60.68
40574;BME280;26283;49.020;8.644;2024-02-23T02:58:58;97408.59;;;12.25;60.69
40574;BME280;26283;49.020;8.644;2024-02-23T03:01:24;97404.28;;;12.24;60.63
40574;BME280;26283;49.020;8.644;2024-02-23T03:03:49;97416.16;;;12.23;60.69
40574;BME280;26283;49.020;8.644;2024-02-23T03:06:15;97415.34;;;12.23;60.57
40574;BME280;26283;49.020;8.644;2024-02-23T03:08:43;97415.63;;;12.21;60.50
40574;BME280;26283;49.020;8.644;2024-02-23T03:11:09;97421.03;;;12.21;60.50
40574;BME280;26283;49.020;8.644;2024-02-23T03:13:34;97414.00;;;12.20;60.42
40574;BME280;26283;49.020;8.644;2024-02-23T03:15:59;97424.00;;;12.20;60.44
40574;BME280;26283;49.020;8.644;2024-02-23T03:18:25;97425.87;;;12.19;60.47
40574;BME280;26283;49.020;8.644;2024-02-23T03:20:52;97426.16;;;12.18;60.41
40574;BME280;26283;49.020;8.644;2024-02-23T03:23:18;97409.16;;;12.17;60.39
40574;BME280;26283;49.020;8.644;2024-02-23T03:25:43;97419.13;;;12.17;60.38
40574;BME280;26283;49.020;8.644;2024-02-23T03:28:08;97411.84;;;12.17;60.53
40574;BME280;26283;49.020;8.644;2024-02-23T03:30:34;97415.63;;;12.16;60.44
40574;BME280;26283;49.020;8.644;2024-02-23T03:32:59;97412.13;;;12.16;60.32
40574;BME280;26283;49.020;8.644;2024-02-23T03:35:24;97411.31;;;12.15;60.29
40574;BME280;26283;49.020;8.644;2024-02-23T03:37:50;97399.97;;;12.13;60.23
40574;BME280;26283;49.020;8.644;2024-02-23T03:40:15;97401.87;;;12.13;60.18
40574;BME280;26283;49.020;8.644;2024-02-23T03:42:43;97412.66;;;12.13;60.15
40574;BME280;26283;49.020;8.644;2024-02-23T03:45:08;97417.28;;;12.12;60.14
40574;BME280;26283;49.020;8.644;2024-02-23T03:47:34;97404.88;;;12.11;60.12
40574;BME280;26283;49.020;8.644;2024-02-23T03:49:59;97414.03;;;12.10;60.02
40574;BME280;26283;49.020;8.644;2024-02-23T03:52:25;97407.03;;;12.09;60.13
40574;BME280;26283;49.020;8.644;2024-02-23T03:54:50;97408.91;;;12.09;60.04
40574;BME280;26283;49.020;8.644;2024-02-23T03:57:17;97416.22;;;12.08;60.12
40574;BME280;26283;49.020;8.644;2024-02-23T03:59:51;97420.78;;;12.08;60.00
40574;BME280;26283;49.020;8.644;2024-02-23T04:02:17;97431.59;;;12.08;60.16
40574;BME280;26283;49.020;8.644;2024-02-23T04:04:43;97432.69;;;12.07;59.84
40574;BME280;26283;49.020;8.644;2024-02-23T04:07:08;97442.66;;;12.06;59.92
40574;BME280;26283;49.020;8.644;2024-02-23T04:09:33;97445.38;;;12.06;59.83
40574;BME280;26283;49.020;8.644;2024-02-23T04:11:58;97444.81;;;12.04;59.79
40574;BME280;26283;49.020;8.644;2024-02-23T04:14:24;97442.94;;;12.05;59.73
40574;BME280;26283;49.020;8.644;2024-02-23T04:16:49;97434.03;;;12.04;59.74
40574;BME280;26283;49.020;8.644;2024-02-23T04:19:14;97432.41;;;12.03;59.80
40574;BME280;26283;49.020;8.644;2024-02-23T04:21:40;97433.47;;;12.02;59.72
40574;BME280;26283;49.020;8.644;2024-02-23T04:24:05;97426.47;;;12.01;59.62
40574;BME280;26283;49.020;8.644;2024-02-23T04:26:32;97438.88;;;12.02;59.72
40574;BME280;26283;49.020;8.644;2024-02-23T04:28:57;97427.00;;;11.98;59.61
40574;BME280;26283;49.020;8.644;2024-02-23T04:31:22;97438.34;;;12.00;59.59
40574;BME280;26283;49.020;8.644;2024-02-23T04:33:48;97437.53;;;11.99;59.58
40574;BME280;26283;49.020;8.644;2024-02-23T04:36:13;97436.72;;;11.99;59.59
40574;BME280;26283;49.020;8.644;2024-02-23T04:38:39;97427.00;;;11.98;59.61
40574;BME280;26283;49.020;8.644;2024-02-23T04:41:05;97436.72;;;11.99;59.63
40574;BME280;26283;49.020;8.644;2024-02-23T04:43:30;97430.78;;;11.97;59.50
40574;BME280;26283;49.020;8.644;2024-02-23T04:45:56;97433.75;;;11.95;59.47
40574;BME280;26283;49.020;8.644;2024-02-23T04:48:21;97429.97;;;11.96;59.45
40574;BME280;26283;49.020;8.644;2024-02-23T04:50:46;97422.97;;;11.95;59.36
40574;BME280;26283;49.020;8.644;2024-02-23T04:53:12;97442.94;;;11.94;59.34
40574;BME280;26283;49.020;8.644;2024-02-23T04:55:37;97434.84;;;11.94;59.28
40574;BME280;26283;49.020;8.644;2024-02-23T04:58:03;97419.72;;;11.93;59.20
40574;BME280;26283;49.020;8.644;2024-02-23T05:00:28;97416.22;;;11.93;59.30
40574;BME280;26283;49.020;8.644;2024-02-23T05:02:59;97411.09;;;11.91;59.30
40574;BME280;26283;49.020;8.644;2024-02-23T05:05:24;97413.78;;;11.91;59.12
40574;BME280;26283;49.020;8.644;2024-02-23T05:07:50;97420.28;;;11.90;59.12
40574;BME280;26283;49.020;8.644;2024-02-23T05:10:15;97414.09;;;11.90;59.09
40574;BME280;26283;49.020;8.644;2024-02-23T05:12:42;97404.38;;;11.89;59.15
40574;BME280;26283;49.020;8.644;2024-02-23T05:15:08;97414.34;;;11.88;59.11
40574;BME280;26283;49.020;8.644;2024-02-23T05:17:33;97405.44;;;11.88;59.13
40574;BME280;26283;49.020;8.644;2024-02-23T05:19:58;97401.13;;;11.87;59.05
40574;BME280;26283;49.020;8.644;2024-02-23T05:22:24;97398.44;;;11.87;59.19
40574;BME280;26283;49.020;8.644;2024-02-23T05:24:49;97398.44;;;11.87;59.13
40574;BME280;26283;49.020;8.644;2024-02-23T05:27:14;97394.09;;;11.86;59.05
40574;BME280;26283;49.020;8.644;2024-02-23T05:29:40;97405.19;;;11.84;59.06
40574;BME280;26283;49.020;8.644;2024-02-23T05:32:05;97392.75;;;11.83;59.05
40574;BME280;26283;49.020;8.644;2024-02-23T05:34:31;97383.84;;;11.83;59.23
40574;BME280;26283;49.020;8.644;2024-02-23T05:36:56;97390.34;;;11.82;59.09
40574;BME280;26283;49.020;8.644;2024-02-23T05:39:21;97384.13;;;11.81;59.00
40574;BME280;26283;49.020;8.644;2024-02-23T05:41:47;97375.22;;;11.81;59.10
40574;BME280;26283;49.020;8.644;2024-02-23T05:44:12;97387.09;;;11.80;59.02
40574;BME280;26283;49.020;8.644;2024-02-23T05:46:39;97382.50;;;11.80;59.09
40574;BME280;26283;49.020;8.644;2024-02-23T05:49:04;97386.28;;;11.79;58.98
40574;BME280;26283;49.020;8.644;2024-02-23T05:51:30;97398.69;;;11.80;59.06
40574;BME280;26283;49.020;8.644;2024-02-23T05:53:56;97385.47;;;11.79;58.93
40574;BME280;26283;49.020;8.644;2024-02-23T05:56:21;97382.78;;;11.79;58.97
40574;BME280;26283;49.020;8.644;2024-02-23T05:58:49;97383.84;;;11.78;58.99
40574;BME280;26283;49.020;8.644;2024-02-23T06:01:14;97389.53;;;11.76;59.06
40574;BME280;26283;49.020;8.644;2024-02-23T06:03:39;97390.34;;;11.77;58.82
40574;BME280;26283;49.020;8.644;2024-02-23T06:06:08;97385.97;;;11.76;58.68
40574;BME280;26283;49.020;8.644;2024-02-23T06:08:34;97379.78;;;11.75;58.90
40574;BME280;26283;49.020;8.644;2024-02-23T06:11:00;97389.75;;;11.75;58.82
40574;BME280;26283;49.020;8.644;2024-02-23T06:13:26;97394.34;;;11.74;58.76
40574;BME280;26283;49.020;8.644;2024-02-23T06:15:52;97398.12;;;11.73;58.77
40574;BME280;26283;49.020;8.644;2024-02-23T06:18:17;97401.91;;;11.72;58.68
40574;BME280;26283;49.020;8.644;2024-02-23T06:20:42;97395.69;;;11.72;58.65
40574;BME280;26283;49.020;8.644;2024-02-23T06:23:08;97384.91;;;11.72;58.65
40574;BME280;26283;49.020;8.644;2024-02-23T06:25:33;97399.47;;;11.71;58.47
40574;BME280;26283;49.020;8.644;2024-02-23T06:27:58;97385.97;;;11.71;58.37
40574;BME280;26283;49.020;8.644;2024-02-23T06:30:24;97388.97;;;11.69;58.41
40574;BME280;26283;49.020;8.644;2024-02-23T06:32:49;97393.56;;;11.68;58.57
40574;BME280;26283;49.020;8.644;2024-02-23T06:35:15;97397.84;;;11.69;58.61
40574;BME280;26283;49.020;8.644;2024-02-23T06:37:40;97403.53;;;11.68;58.52
40574;BME280;26283;49.020;8.644;2024-02-23T06:40:06;97405.44;;;11.67;58.49
40574;BME280;26283;49.020;8.644;2024-02-23T06:42:32;97406.50;;;11.66;58.48
40574;BME280;26283;49.020;8.644;2024-02-23T06:44:58;97413.78;;;11.66;58.68
40574;BME280;26283;49.020;8.644;2024-02-23T06:47:23;97410.28;;;11.65;58.64
40574;BME280;26283;49.020;8.644;2024-02-23T06:49:50;97405.97;;;11.64;58.61
40574;BME280;26283;49.020;8.644;2024-02-23T06:52:15;97415.13;;;11.63;58.57
40574;BME280;26283;49.020;8.644;2024-02-23T06:54:41;97423.22;;;11.63;58.51
40574;BME280;26283;49.020;8.644;2024-02-23T06:57:06;97430.53;;;11.63;58.52
40574;BME280;26283;49.020;8.644;2024-02-23T06:59:32;97438.88;;;11.61;58.36
40574;BME280;26283;49.020;8.644;2024-02-23T07:01:58;97437.81;;;11.62;58.36
40574;BME280;26283;49.020;8.644;2024-02-23T07:04:23;97437.00;;;11.62;58.29
40574;BME280;26283;49.020;8.644;2024-02-23T07:06:48;97448.06;;;11.60;58.29
40574;BME280;26283;49.020;8.644;2024-02-23T07:09:14;97452.63;;;11.60;58.29
40574;BME280;26283;49.020;8.644;2024-02-23T07:11:39;97453.72;;;11.59;58.24
40574;BME280;26283;49.020;8.644;2024-02-23T07:14:06;97453.72;;;11.59;58.22
40574;BME280;26283;49.020;8.644;2024-02-23T07:16:32;97466.38;;;11.58;58.21
40574;BME280;26283;49.020;8.644;2024-02-23T07:18:57;97480.16;;;11.57;58.24
40574;BME280;26283;49.020;8.644;2024-02-23T07:21:23;97478.25;;;11.57;58.22
40574;BME280;26283;49.020;8.644;2024-02-23T07:23:48;97479.34;;;11.56;58.27
40574;BME280;26283;49.020;8.644;2024-02-23T07:26:13;97488.50;;;11.55;58.18
40574;BME280;26283;49.020;8.644;2024-02-23T07:28:39;97499.28;;;11.55;58.14
40574;BME280;26283;49.020;8.644;2024-02-23T07:31:04;97498.47;;;11.55;58.12
40574;BME280;26283;49.020;8.644;2024-02-23T07:33:29;97502.25;;;11.54;58.22
40574;BME280;26283;49.020;8.644;2024-02-23T07:35:55;97509.53;;;11.53;58.24
40574;BME280;26283;49.020;8.644;2024-02-23T07:38:20;97516.00;;;11.52;58.25
40574;BME280;26283;49.020;8.644;2024-02-23T07:40:46;97515.19;;;11.52;58.27
40574;BME280;26283;49.020;8.644;2024-02-23T07:43:11;97518.69;;;11.52;58.21
40574;BME280;26283;49.020;8.644;2024-02-23T07:45:37;97522.47;;;11.51;58.23
40574;BME280;26283;49.020;8.644;2024-02-23T07:48:03;97515.47;;;11.50;58.30
40574;BME280;26283;49.020;8.644;2024-02-23T07:50:28;97516.53;;;11.49;58.31
40574;BME280;26283;49.020;8.644;2024-02-23T07:52:54;97518.41;;;11.49;58.31
40574;BME280;26283;49.020;8.644;2024-02-23T07:55:19;97513.03;;;11.49;58.45
40574;BME280;26283;49.020;8.644;2024-02-23T07:57:45;97515.72;;;11.49;58.43
40574;BME280;26283;49.020;8.644;2024-02-23T08:00:10;97509.53;;;11.48;58.49
40574;BME280;26283;49.020;8.644;2024-02-23T08:02:37;97509.81;;;11.47;58.45
40574;BME280;26283;49.020;8.644;2024-02-23T08:05:02;97500.09;;;11.46;58.53
40574;BME280;26283;49.020;8.644;2024-02-23T08:07:29;97505.50;;;11.46;58.56
40574;BME280;26283;49.020;8.644;2024-02-23T08:09:56;97502.00;;;11.45;58.61
40574;BME280;26283;49.020;8.644;2024-02-23T08:12:22;97498.47;;;11.45;58.62
40574;BME280;26283;49.020;8.644;2024-02-23T08:14:47;97516.56;;;11.44;58.61
40574;BME280;26283;49.020;8.644;2024-02-23T08:17:14;97511.16;;;11.44;59.95
40574;BME280;26283;49.020;8.644;2024-02-23T08:19:40;97510.34;;;11.44;60.38
40574;BME280;26283;49.020;8.644;2024-02-23T08:22:05;97506.84;;;11.43;60.57
40574;BME280;26283;49.020;8.644;2024-02-23T08:24:30;97507.66;;;11.44;60.69
40574;BME280;26283;49.020;8.644;2024-02-23T08:26:56;97507.91;;;11.42;60.79
40574;BME280;26283;49.020;8.644;2024-02-23T08:29:22;97507.91;;;11.42;60.85
40574;BME280;26283;49.020;8.644;2024-02-23T08:31:48;97495.25;;;11.43;60.92
40574;BME280;26283;49.020;8.644;2024-02-23T08:34:13;97493.34;;;11.43;60.96
40574;BME280;26283;49.020;8.644;2024-02-23T08:36:39;97498.75;;;11.43;61.04
40574;BME280;26283;49.020;8.644;2024-02-23T08:39:05;97494.44;;;11.42;61.09
40574;BME280;26283;49.020;8.644;2024-02-23T08:41:30;97489.03;;;11.42;61.18
40574;BME280;26283;49.020;8.644;2024-02-23T08:43:56;97495.25;;;11.43;61.26
40574;BME280;26283;49.020;8.644;2024-02-23T08:46:21;97499.81;;;11.42;61.33
40574;BME280;26283;49.020;8.644;2024-02-23T08:48:47;97494.44;;;11.42;61.39
40574;BME280;26283;49.020;8.644;2024-02-23T08:51:12;97486.34;;;11.42;61.43
40574;BME280;26283;49.020;8.644;2024-02-23T08:53:37;97489.84;;;11.43;61.48
40574;BME280;26283;49.020;8.644;2024-02-23T08:56:04;97487.16;;;11.43;61.55
40574;BME280;26283;49.020;8.644;2024-02-23T08:58:29;97482.56;;;11.43;61.59
40574;BME280;26283;49.020;8.644;2024-02-23T09:00:55;97485.25;;;11.43;61.64
40574;BME280;26283;49.020;8.644;2024-02-23T09:03:20;97476.09;;;11.44;61.68
40574;BME280;26283;49.020;8.644;2024-02-23T09:05:46;97470.69;;;11.44;61.72
40574;BME280;26283;49.020;8.644;2024-02-23T09:08:13;97474.22;;;11.45;61.75
40574;BME280;26283;49.020;8.644;2024-02-23T09:10:38;97464.22;;;11.45;61.79
40574;BME280;26283;49.020;8.644;2024-02-23T09:13:04;97466.94;;;11.45;61.84
40574;BME280;26283;49.020;8.644;2024-02-23T09:15:29;97463.16;;;11.46;61.87
40574;BME280;26283;49.020;8.644;2024-02-23T09:17:54;97469.34;;;11.47;61.90
40574;BME280;26283;49.020;8.644;2024-02-23T09:20:20;97468.25;;;11.48;61.92
40574;BME280;26283;49.020;8.644;2024-02-23T09:22:45;97459.38;;;11.47;61.96
40574;BME280;26283;49.020;8.644;2024-02-23T09:25:11;97464.47;;;11.49;61.99
40574;BME280;26283;49.020;8.644;2024-02-23T09:27:36;97468.78;;;11.50;62.02
40574;BME280;26283;49.020;8.644;2024-02-23T09:30:10;97468.78;;;11.50;62.05
40574;BME280;26283;49.020;8.644;2024-02-23T09:32:35;97465.84;;;11.51;62.07
40574;BME280;26283;49.020;8.644;2024-02-23T09:35:00;97472.84;;;11.52;62.08
40574;BME280;26283;49.020;8.644;2024-02-23T09:37:26;97467.19;;;11.54;62.11
40574;BME280;26283;49.020;8.644;2024-02-23T09:39:51;97476.91;;;11.55;62.12
40574;BME280;26283;49.020;8.644;2024-02-23T09:42:17;97471.50;;;11.55;62.13
40574;BME280;26283;49.020;8.644;2024-02-23T09:44:44;97475.81;;;11.56;62.13
40574;BME280;26283;49.020;8.644;2024-02-23T09:47:12;97472.06;;;11.57;62.14
40574;BME280;26283;49.020;8.644;2024-02-23T09:49:39;97474.47;;;11.58;62.15
40574;BME280;26283;49.020;8.644;2024-02-23T09:52:08;97475.28;;;11.59;62.16
40574;BME280;26283;49.020;8.644;2024-02-23T09:54:37;97469.63;;;11.60;62.16
40574;BME280;26283;49.020;8.644;2024-02-23T09:57:06;97478.28;;;11.62;62.16
40574;BME280;26283;49.020;8.644;2024-02-23T09:59:34;97484.22;;;11.64;62.17
40574;BME280;26283;49.020;8.644;2024-02-23T10:01:59;97476.13;;;11.64;62.17
40574;BME280;26283;49.020;8.644;2024-02-23T10:04:26;97487.44;;;11.66;62.18
40574;BME280;26283;49.020;8.644;2024-02-23T10:06:54;97488.25;;;11.67;62.17
40574;BME280;26283;49.020;8.644;2024-02-23T10:09:19;97488.00;;;11.68;62.17
40574;BME280;26283;49.020;8.644;2024-02-23T10:11:52;97485.81;;;11.71;62.16
40574;BME280;26283;49.020;8.644;2024-02-23T10:14:17;97493.63;;;11.72;62.16
40574;BME280;26283;49.020;8.644;2024-02-23T10:16:42;97489.88;;;11.73;62.14
40574;BME280;26283;49.020;8.644;2024-02-23T10:19:07;97496.06;;;11.74;62.14
40574;BME280;26283;49.020;8.644;2024-02-23T10:21:33;97500.37;;;11.75;62.14
40574;BME280;26283;49.020;8.644;2024-02-23T10:23:58;97495.56;;;11.77;62.13
40574;BME280;26283;49.020;8.644;2024-02-23T10:26:24;97494.50;;;11.78;62.12
40574;BME280;26283;49.020;8.644;2024-02-23T10:28:51;97498.81;;;11.79;62.11
40574;BME280;26283;49.020;8.644;2024-02-23T10:31:17;97495.84;;;11.80;62.08
40574;BME280;26283;49.020;8.644;2024-02-23T10:33:44;97502.06;;;11.81;62.09
40574;BME280;26283;49.020;8.644;2024-02-23T10:36:11;97510.69;;;11.83;62.06
40574;BME280;26283;49.020;8.644;2024-02-23T10:38:41;97487.47;;;11.82;62.08
40574;BME280;26283;49.020;8.644;2024-02-23T10:41:13;97490.72;;;11.84;62.06
40574;BME280;26283;49.020;8.644;2024-02-23T10:43:44;97486.94;;;11.85;62.07
40574;BME280;26283;49.020;8.644;2024-02-23T10:46:12;97490.19;;;11.87;62.02
40574;BME280;26283;49.020;8.644;2024-02-23T10:48:41;97493.97;;;11.86;62.02
40574;BME280;26283;49.020;8.644;2024-02-23T10:51:07;97498.00;;;11.88;62.01
40574;BME280;26283;49.020;8.644;2024-02-23T10:53:36;97488.84;;;11.89;61.99
40574;BME280;26283;49.020;8.644;2024-02-23T10:56:04;97488.53;;;11.91;61.98
40574;BME280;26283;49.020;8.644;2024-02-23T10:58:30;97492.06;;;11.91;61.96
40574;BME280;26283;49.020;8.644;2024-02-23T11:01:04;97485.56;;;11.92;61.96
40574;BME280;26283;49.020;8.644;2024-02-23T11:03:31;97496.91;;;11.94;61.93
40574;BME280;26283;49.020;8.644;2024-02-23T11:05:59;97494.75;;;11.96;61.92
40574;BME280;26283;49.020;8.644;2024-02-23T11:08:28;97486.66;;;11.96;61.91
40574;BME280;26283;49.020;8.644;2024-02-23T11:10:53;97500.69;;;11.98;61.88
40574;BME280;26283;49.020;8.644;2024-02-23T11:13:38;97489.91;;;11.98;61.89
40574;BME280;26283;49.020;8.644;2024-02-23T11:16:05;97493.41;;;11.99;61.88
40574;BME280;26283;49.020;8.644;2024-02-23T11:18:32;97493.94;;;12.01;61.84
40574;BME280;26283;49.020;8.644;2024-02-23T11:21:00;97488.56;;;12.01;61.83
40574;BME280;26283;49.020;8.644;2024-02-23T11:23:26;97478.56;;;12.01;61.85
40574;BME280;26283;49.020;8.644;2024-02-23T11:25:59;97475.59;;;12.03;61.83
40574;BME280;26283;49.020;8.644;2024-02-23T11:28:25;97472.91;;;12.03;61.82
40574;BME280;26283;49.020;8.644;2024-02-23T11:30:51;97476.13;;;12.05;61.81
40574;BME280;26283;49.020;8.644;2024-02-23T11:33:25;97469.66;;;12.06;61.81
40574;BME280;26283;49.020;8.644;2024-02-23T11:35:51;97458.88;;;12.06;61.79
40574;BME280;26283;49.020;8.644;2024-02-23T11:38:18;97467.78;;;12.07;61.77
40574;BME280;26283;49.020;8.644;2024-02-23T11:40:48;97464.00;;;12.08;61.78
40574;BME280;26283;49.020;8.644;2024-02-23T11:43:13;97462.91;;;12.09;61.78
40574;BME280;26283;49.020;8.644;2024-02-23T11:45:40;97468.31;;;12.09;61.78
40574;BME280;26283;49.020;8.644;2024-02-23T11:48:06;97471.81;;;12.09;61.78
40574;BME280;26283;49.020;8.644;2024-02-23T11:50:31;97465.34;;;12.10;61.77
40574;BME280;26283;49.020;8.644;2024-02-23T11:52:57;97468.84;;;12.11;61.77
40574;BME280;26283;49.020;8.644;2024-02-23T11:55:22;97467.78;;;12.12;61.78
40574;BME280;26283;49.020;8.644;2024-02-23T11:57:48;97465.06;;;12.12;61.75
40574;BME280;26283;49.020;8.644;2024-02-23T12:00:14;97462.06;;;12.13;61.75
40574;BME280;26283;49.020;8.644;2024-02-23T12:02:40;97465.88;;;12.12;61.75
40574;BME280;26283;49.020;8.644;2024-02-23T12:05:06;97456.66;;;12.13;61.75
40574;BME280;26283;49.020;8.644;2024-02-23T12:07:32;97461.00;;;12.14;61.75
40574;BME280;26283;49.020;8.644;2024-02-23T12:09:58;97458.28;;;12.14;61.74
40574;BME280;26283;49.020;8.644;2024-02-23T12:12:25;97454.50;;;12.15;61.71
40574;BME280;26283;49.020;8.644;2024-02-23T12:14:51;97456.13;;;12.16;61.72
40574;BME280;26283;49.020;8.644;2024-02-23T12:17:17;97457.75;;;12.17;61.69
40574;BME280;26283;49.020;8.644;2024-02-23T12:19:42;97441.56;;;12.17;61.71
40574;BME280;26283;49.020;8.644;2024-02-23T12:22:08;97462.87;;;12.19;61.72
40574;BME280;26283;49.020;8.644;2024-02-23T12:24:35;97461.81;;;12.20;61.72
40574;BME280;26283;49.020;8.644;2024-02-23T12:27:00;97452.09;;;12.19;61.70
40574;BME280;26283;49.020;8.644;2024-02-23T12:29:25;97454.50;;;12.20;61.73
40574;BME280;26283;49.020;8.644;2024-02-23T12:32:02;97452.63;;;12.21;61.73
40574;BME280;26283;49.020;8.644;2024-02-23T12:34:28;97449.09;;;12.20;61.76
40574;BME280;26283;49.020;8.644;2024-02-23T12:36:55;97449.91;;;12.21;61.76
40574;BME280;26283;49.020;8.644;2024-02-23T12:39:20;97442.63;;;12.21;61.79
40574;BME280;26283;49.020;8.644;2024-02-23T12:41:46;97456.13;;;12.21;61.79
40574;BME280;26283;49.020;8.644;2024-02-23T12:44:12;97452.34;;;12.22;61.78
40574;BME280;26283;49.020;8.644;2024-02-23T12:46:37;97455.06;;;12.22;61.79
40574;BME280;26283;49.020;8.644;2024-02-23T12:49:02;97449.38;;;12.24;61.81
40574;BME280;26283;49.020;8.644;2024-02-23T12:51:28;97453.97;;;12.23;61.79
40574;BME280;26283;49.020;8.644;2024-02-23T12:53:53;97452.88;;;12.24;61.80